Time,TemperatureF,DewpointF,PressureIn,WindDirection,WindDirectionDegrees,WindSpeedMPH,WindSpeedGustMPH,Humidity,HourlyPrecipIn,Conditions,Clouds,dailyrainin,SolarRadiationWatts/m^2,SoftwareType,DateUTC
2013-06-17 00:02:00,59.0,57.0,-100.00,NW,320,0.0,2.0,94,0.00,,,0.00,0.000000,,2013-06-17 04:02:00,
2013-06-17 00:12:00,59.0,57.0,-100.00,NW,320,0.0,2.0,94,0.00,,,0.00,0.000000,,2013-06-17 04:12:00,
2013-06-17 00:23:00,59.0,57.0,-100.00,NW,320,0.0,2.0,94,0.00,,,0.00,0.000000,,2013-06-17 04:23:00,
2013-06-17 00:53:00,59.0,58.0,-100.00,WSW,250,2.0,5.0,95,0.00,,,0.00,0.000000,,2013-06-17 04:53:00,
2013-06-17 01:02:00,59.0,58.0,-100.00,WSW,250,2.0,5.0,95,0.00,,,0.00,0.000000,,2013-06-17 05:02:00,
2013-06-17 01:12:00,59.0,58.0,-100.00,WSW,250,2.0,5.0,95,0.00,,,0.00,0.000000,,2013-06-17 05:12:00,
2013-06-17 01:22:00,59.0,58.0,-100.00,WSW,250,2.0,5.0,95,0.00,,,0.00,0.000000,,2013-06-17 05:22:00,
2013-06-17 01:53:00,63.0,58.0,-100.00,WNW,295,3.0,9.0,84,0.00,,,0.00,0.000000,,2013-06-17 05:53:00,
2013-06-17 02:02:00,63.0,58.0,-100.00,WNW,295,3.0,9.0,84,0.00,,,0.00,0.000000,,2013-06-17 06:02:00,
2013-06-17 02:12:00,63.0,58.0,-100.00,WNW,295,3.0,9.0,84,0.00,,,0.00,0.000000,,2013-06-17 06:12:00,
2013-06-17 02:22:00,63.0,58.0,-100.00,WNW,295,3.0,9.0,84,0.00,,,0.00,0.000000,,2013-06-17 06:22:00,
2013-06-17 02:53:00,61.0,58.0,-100.00,West,270,2.0,7.0,90,0.00,,,0.00,0.000000,,2013-06-17 06:53:00,
2013-06-17 03:02:00,61.0,58.0,-100.00,West,270,2.0,7.0,90,0.00,,,0.00,0.000000,,2013-06-17 07:02:00,
2013-06-17 03:12:00,61.0,58.0,-100.00,West,270,2.0,7.0,90,0.00,,,0.00,0.000000,,2013-06-17 07:12:00,
2013-06-17 03:22:00,61.0,58.0,-100.00,West,270,2.0,7.0,90,0.00,,,0.00,0.000000,,2013-06-17 07:22:00,
2013-06-17 03:53:00,61.0,58.0,-100.00,West,271,3.0,7.0,90,0.00,,,0.00,0.000000,,2013-06-17 07:53:00,
2013-06-17 04:02:00,61.0,58.0,-100.00,West,271,3.0,7.0,90,0.00,,,0.00,0.000000,,2013-06-17 08:02:00,
2013-06-17 04:12:00,61.0,58.0,-100.00,West,271,3.0,7.0,90,0.00,,,0.00,0.000000,,2013-06-17 08:12:00,
2013-06-17 04:22:00,61.0,58.0,-100.00,West,271,3.0,7.0,90,0.00,,,0.00,0.000000,,2013-06-17 08:22:00,
2013-06-17 04:53:00,60.0,58.0,-100.00,WNW,285,2.0,10.0,92,0.00,,,0.00,0.000000,,2013-06-17 08:53:00,
2013-06-17 05:02:00,60.0,58.0,-100.00,WNW,285,2.0,10.0,92,0.00,,,0.00,0.000000,,2013-06-17 09:02:00,
2013-06-17 05:12:00,60.0,58.0,-100.00,WNW,285,2.0,10.0,92,0.00,,,0.00,0.000000,,2013-06-17 09:12:00,
2013-06-17 05:22:00,60.0,58.0,-100.00,WNW,285,2.0,10.0,92,0.00,,,0.00,0.000000,,2013-06-17 09:22:00,
2013-06-17 05:53:00,59.0,57.0,-100.00,West,264,4.0,7.0,94,0.00,,,0.00,4.000000,,2013-06-17 09:53:00,
2013-06-17 06:02:00,59.0,57.0,-100.00,West,264,4.0,7.0,94,0.00,,,0.00,4.000000,,2013-06-17 10:02:00,
2013-06-17 06:12:00,59.0,57.0,-100.00,West,264,4.0,7.0,94,0.00,,,0.00,4.000000,,2013-06-17 10:12:00,
2013-06-17 06:22:00,59.0,57.0,-100.00,West,264,4.0,7.0,94,0.00,,,0.00,4.000000,,2013-06-17 10:22:00,
2013-06-17 06:54:00,60.0,57.0,-100.00,WNW,301,3.0,8.0,90,0.00,,,0.00,22.000000,,2013-06-17 10:54:00,
2013-06-17 07:02:00,60.0,57.0,-100.00,WNW,301,3.0,8.0,90,0.00,,,0.00,22.000000,,2013-06-17 11:02:00,
2013-06-17 07:12:00,60.0,57.0,-100.00,WNW,301,3.0,8.0,90,0.00,,,0.00,22.000000,,2013-06-17 11:12:00,
2013-06-17 07:23:00,60.0,57.0,-100.00,WNW,301,3.0,8.0,90,0.00,,,0.00,22.000000,,2013-06-17 11:23:00,
2013-06-17 07:53:00,68.0,59.0,-100.00,West,274,3.0,8.0,73,0.00,,,0.00,251.000000,,2013-06-17 11:53:00,
2013-06-17 08:02:00,68.0,59.0,-100.00,West,274,3.0,8.0,73,0.00,,,0.00,251.000000,,2013-06-17 12:02:00,
2013-06-17 08:12:00,68.0,59.0,-100.00,West,274,3.0,8.0,73,0.00,,,0.00,251.000000,,2013-06-17 12:12:00,
2013-06-17 08:23:00,68.0,59.0,-100.00,West,274,3.0,8.0,73,0.00,,,0.00,251.000000,,2013-06-17 12:23:00,
2013-06-17 08:53:00,73.0,60.0,-100.00,West,280,5.0,13.0,63,0.00,,,0.00,432.000000,,2013-06-17 12:53:00,
2013-06-17 09:02:00,73.0,60.0,-100.00,West,280,5.0,13.0,63,0.00,,,0.00,432.000000,,2013-06-17 13:02:00,
2013-06-17 09:12:00,73.0,60.0,-100.00,West,280,5.0,13.0,63,0.00,,,0.00,432.000000,,2013-06-17 13:12:00,
2013-06-17 09:22:00,73.0,60.0,-100.00,West,280,5.0,13.0,63,0.00,,,0.00,432.000000,,2013-06-17 13:22:00,
2013-06-17 09:53:00,77.0,60.0,-100.00,WNW,295,4.0,16.0,56,0.00,,,0.00,602.000000,,2013-06-17 13:53:00,
2013-06-17 10:02:00,77.0,60.0,-100.00,WNW,295,4.0,16.0,56,0.00,,,0.00,602.000000,,2013-06-17 14:02:00,
2013-06-17 10:12:00,77.0,60.0,-100.00,WNW,295,4.0,16.0,56,0.00,,,0.00,602.000000,,2013-06-17 14:12:00,
2013-06-17 10:22:00,77.0,60.0,-100.00,WNW,295,4.0,16.0,56,0.00,,,0.00,602.000000,,2013-06-17 14:22:00,
2013-06-17 10:54:00,80.0,59.0,-100.00,NW,314,6.0,16.0,48,0.00,,,-99.99,749.000000,,2013-06-17 14:54:00,
2013-06-17 11:02:00,80.0,59.0,-100.00,NW,314,6.0,16.0,48,0.00,,,-99.99,749.000000,,2013-06-17 15:02:00,
2013-06-17 11:12:00,80.0,59.0,-100.00,NW,314,6.0,16.0,48,0.00,,,-99.99,749.000000,,2013-06-17 15:12:00,
2013-06-17 11:22:00,80.0,59.0,-100.00,NW,314,6.0,16.0,48,0.00,,,-99.99,749.000000,,2013-06-17 15:22:00,
2013-06-17 11:53:00,82.0,59.0,-100.00,WNW,291,6.0,14.0,45,0.00,,,0.00,856.000000,,2013-06-17 15:53:00,
2013-06-17 12:02:00,82.0,59.0,-100.00,WNW,291,6.0,14.0,45,0.00,,,0.00,856.000000,,2013-06-17 16:02:00,
2013-06-17 12:12:00,82.0,59.0,-100.00,WNW,291,6.0,14.0,45,0.00,,,0.00,856.000000,,2013-06-17 16:12:00,
2013-06-17 12:22:00,82.0,59.0,-100.00,WNW,291,6.0,14.0,45,0.00,,,0.00,856.000000,,2013-06-17 16:22:00,
2013-06-17 12:54:00,83.0,57.0,-100.00,West,262,6.0,15.0,41,0.00,,,0.00,885.000000,,2013-06-17 16:54:00,
2013-06-17 13:02:00,83.0,57.0,-100.00,West,262,6.0,15.0,41,0.00,,,0.00,885.000000,,2013-06-17 17:02:00,
2013-06-17 13:12:00,83.0,57.0,-100.00,West,262,6.0,15.0,41,0.00,,,0.00,885.000000,,2013-06-17 17:12:00,
2013-06-17 13:22:00,83.0,57.0,-100.00,West,262,6.0,15.0,41,0.00,,,0.00,885.000000,,2013-06-17 17:22:00,
2013-06-17 13:52:00,84.0,56.0,-100.00,WSW,257,6.0,14.0,38,0.00,,,0.00,690.000000,,2013-06-17 17:52:00,
2013-06-17 14:02:00,84.0,56.0,-100.00,WSW,257,6.0,14.0,38,0.00,,,0.00,690.000000,,2013-06-17 18:02:00,
2013-06-17 14:12:00,84.0,56.0,-100.00,WSW,257,6.0,14.0,38,0.00,,,0.00,690.000000,,2013-06-17 18:12:00,
2013-06-17 14:23:00,84.0,56.0,-100.00,WSW,257,6.0,14.0,38,0.00,,,0.00,690.000000,,2013-06-17 18:23:00,
2013-06-17 14:53:00,71.0,59.0,-100.00,SE,136,4.0,11.0,65,0.00,,,0.00,475.000000,,2013-06-17 18:53:00,
2013-06-17 15:02:00,71.0,59.0,-100.00,SE,136,4.0,11.0,65,0.00,,,0.00,475.000000,,2013-06-17 19:02:00,
2013-06-17 15:12:00,71.0,59.0,-100.00,SE,136,4.0,11.0,65,0.00,,,0.00,475.000000,,2013-06-17 19:12:00,
2013-06-17 15:22:00,71.0,59.0,-100.00,SE,136,4.0,11.0,65,0.00,,,0.00,475.000000,,2013-06-17 19:22:00,
2013-06-17 15:54:00,75.0,61.0,-100.00,South,170,3.0,9.0,61,0.00,,,0.00,303.000000,,2013-06-17 19:54:00,
2013-06-17 16:02:00,75.0,61.0,-100.00,South,170,3.0,9.0,61,0.00,,,0.00,303.000000,,2013-06-17 20:02:00,
2013-06-17 16:11:00,75.0,61.0,-100.00,South,170,3.0,9.0,61,0.00,,,0.00,303.000000,,2013-06-17 20:11:00,
2013-06-17 16:22:00,75.0,61.0,-100.00,South,170,3.0,9.0,61,0.00,,,0.00,303.000000,,2013-06-17 20:22:00,
2013-06-17 16:52:00,66.0,62.0,-100.00,NW,311,2.0,13.0,87,0.06,,,0.06,76.000000,,2013-06-17 20:52:00,
2013-06-17 17:02:00,66.0,62.0,-100.00,NW,311,2.0,13.0,87,0.06,,,0.06,76.000000,,2013-06-17 21:02:00,
2013-06-17 17:12:00,66.0,62.0,-100.00,NW,311,2.0,13.0,87,0.06,,,0.06,76.000000,,2013-06-17 21:12:00,
2013-06-17 17:22:00,66.0,62.0,-100.00,NW,311,2.0,13.0,87,0.06,,,0.06,76.000000,,2013-06-17 21:22:00,
2013-06-17 18:54:00,68.0,64.0,-100.00,WNW,284,3.0,8.0,87,-99.99,,,0.07,130.000000,,2013-06-17 22:54:00,
2013-06-17 19:02:00,68.0,64.0,-100.00,WNW,284,3.0,8.0,87,-99.99,,,0.07,130.000000,,2013-06-17 23:02:00,
2013-06-17 19:11:00,68.0,64.0,-100.00,WNW,284,3.0,8.0,87,-99.99,,,0.07,130.000000,,2013-06-17 23:11:00,
2013-06-17 19:22:00,68.0,64.0,-100.00,WNW,284,3.0,8.0,87,-99.99,,,0.07,130.000000,,2013-06-17 23:22:00,
2013-06-17 19:53:00,69.0,62.0,-100.00,West,260,4.0,8.0,79,0.00,,,0.07,103.000000,,2013-06-17 23:53:00,
2013-06-17 20:02:00,69.0,62.0,-100.00,West,260,4.0,8.0,79,0.00,,,0.07,103.000000,,2013-06-18 00:02:00,
2013-06-17 20:12:00,69.0,62.0,-100.00,West,260,4.0,8.0,79,0.00,,,0.07,103.000000,,2013-06-18 00:12:00,
2013-06-17 20:22:00,69.0,62.0,-100.00,West,260,4.0,8.0,79,0.00,,,0.07,103.000000,,2013-06-18 00:22:00,
2013-06-17 20:52:00,66.0,61.0,-100.00,WSW,245,2.0,6.0,85,0.00,,,0.07,31.000000,,2013-06-18 00:52:00,
2013-06-17 21:01:00,66.0,61.0,-100.00,WSW,245,2.0,6.0,85,0.00,,,0.07,31.000000,,2013-06-18 01:01:00,
2013-06-17 21:12:00,66.0,61.0,-100.00,WSW,245,2.0,6.0,85,0.00,,,0.07,31.000000,,2013-06-18 01:12:00,
2013-06-17 21:23:00,66.0,61.0,-100.00,WSW,245,2.0,6.0,85,0.00,,,0.07,31.000000,,2013-06-18 01:23:00,
2013-06-17 21:53:00,63.0,60.0,-100.00,SW,215,3.0,6.0,90,0.00,,,0.07,2.000000,,2013-06-18 01:53:00,
2013-06-17 22:02:00,63.0,60.0,-100.00,SW,215,3.0,6.0,90,0.00,,,0.07,2.000000,,2013-06-18 02:02:00,
2013-06-17 22:12:00,63.0,60.0,-100.00,SW,215,3.0,6.0,90,0.00,,,0.07,2.000000,,2013-06-18 02:12:00,
2013-06-17 22:22:00,63.0,60.0,-100.00,SW,215,3.0,6.0,90,0.00,,,0.07,2.000000,,2013-06-18 02:22:00,
2013-06-17 22:53:00,61.0,60.0,-100.00,SSW,210,1.0,5.0,96,0.00,,,0.07,0.000000,,2013-06-18 02:53:00,
2013-06-17 23:02:00,61.0,60.0,-100.00,SSW,210,1.0,5.0,96,0.00,,,0.07,0.000000,,2013-06-18 03:02:00,
2013-06-17 23:12:00,61.0,60.0,-100.00,SSW,210,1.0,5.0,96,0.00,,,0.07,0.000000,,2013-06-18 03:12:00,
2013-06-17 23:23:00,61.0,60.0,-100.00,SSW,210,1.0,5.0,96,0.00,,,0.07,0.000000,,2013-06-18 03:23:00,
2013-06-17 23:53:00,62.0,60.0,-100.00,WNW,283,3.0,10.0,94,0.00,,,0.07,0.000000,,2013-06-18 03:53:00,